Time;durP1;ratioP1;P1;durP2;ratioP2;P2;SDS_P1;SDS_P2;PMS_P1;PMS_P2;Temp;Humidity;BMP_temperature;BMP_pressure;BME280_temperature;BME280_humidity;BME280_pressure;Samples;Min_cycle;Max_cycle;Signal;HPM_P1;HPM_P2
2022/08/11 00:00:48;;;;;;;;;;;;;;;26.77;38.73;99444.50;5032782;28;19920;-77
2022/08/11 00:03:14;;;;;;;;;;;;;;;26.73;39.13;99448.84;5032805;28;20058;-77
2022/08/11 00:05:49;;;;;;;;;;;;;;;26.75;39.49;99449.38;5032903;28;20432;-77
2022/08/11 00:08:25;;;;;;;;;;;;;;;26.76;39.22;99445.59;5032756;28;19932;-77
2022/08/11 00:10:56;;;;;;;;;;;;;;;26.74;38.72;99445.84;5032749;28;19908;-77
2022/08/11 00:13:22;;;;;;;;;;;;;;;26.72;40.27;99448.03;5031439;28;20302;-77
2022/08/11 00:15:48;;;;;;;;;;;;;;;26.67;39.21;99452.69;5032534;28;20302;-77
2022/08/11 00:18:14;;;;;;;;;;;;;;;26.63;39.45;99448.94;5032168;28;19917;-77
2022/08/11 00:20:41;;;;;;;;;;;;;;;26.60;39.65;99453.84;5032608;28;19909;-77
2022/08/11 00:23:08;;;;;;;;;;;;;;;26.60;40.78;99453.84;5032803;28;20378;-77
2022/08/11 00:25:46;;;;;;;;;;;;;;;26.58;39.48;99439.78;5032440;28;20444;-77
2022/08/11 00:28:23;;;;;;;;;;;;;;;26.57;39.30;99443.56;5031058;28;19909;-77
2022/08/11 00:30:50;;;;;;;;;;;;;;;26.52;39.44;99450.94;5032402;28;19909;-77
2022/08/11 00:33:15;;;;;;;;;;;;;;;26.48;39.51;99447.19;5032453;28;19909;-77
2022/08/11 00:35:41;;;;;;;;;;;;;;;26.45;39.77;99450.47;5032423;28;19967;-77
2022/08/11 00:38:08;;;;;;;;;;;;;;;26.42;39.22;99449.13;5032093;28;19913;-77
2022/08/11 00:40:41;;;;;;;;;;;;;;;26.39;40.05;99446.19;5032504;28;20352;-77
2022/08/11 00:43:07;;;;;;;;;;;;;;;26.37;40.09;99448.38;5031924;28;20444;-77
2022/08/11 00:45:38;;;;;;;;;;;;;;;26.36;40.38;99444.88;5030789;28;19909;-77
2022/08/11 00:48:18;;;;;;;;;;;;;;;26.32;39.75;99449.19;5030919;28;20365;-77
2022/08/11 00:50:55;;;;;;;;;;;;;;;26.27;41.07;99451.94;5032193;28;19909;-77
2022/08/11 00:53:39;;;;;;;;;;;;;;;26.28;39.48;99443.53;5032045;28;19913;-77
2022/08/11 00:56:17;;;;;;;;;;;;;;;26.24;40.00;99445.19;5047320;28;20018;-77
2022/08/11 00:58:43;;;;;;;;;;;;;;;26.23;40.36;99442.78;5032036;28;19971;-77
2022/08/11 01:01:09;;;;;;;;;;;;;;;26.15;39.61;99443.38;5031621;28;19971;-77
2022/08/11 01:03:46;;;;;;;;;;;;;;;26.05;39.37;99438.84;5031926;28;19909;-76
2022/08/11 01:06:32;;;;;;;;;;;;;;;26.00;40.11;99449.69;5031847;28;19909;-76
2022/08/11 01:09:00;;;;;;;;;;;;;;;25.96;40.54;99449.44;5031612;28;20397;-76
2022/08/11 01:11:28;;;;;;;;;;;;;;;25.94;40.66;99448.91;5031647;28;19901;-76
2022/08/11 01:14:04;;;;;;;;;;;;;;;25.93;41.06;99455.41;5031613;28;19901;-76
2022/08/11 01:16:48;;;;;;;;;;;;;;;25.91;41.85;99440.56;5031756;28;19935;-76
2022/08/11 01:19:26;;;;;;;;;;;;;;;25.83;40.65;99450.06;5031813;28;19949;-76
2022/08/11 01:22:10;;;;;;;;;;;;;;;25.84;41.17;99445.47;5031615;28;20345;-76
2022/08/11 01:24:50;;;;;;;;;;;;;;;25.79;40.41;99443.59;5031667;28;20279;-76
2022/08/11 01:27:21;;;;;;;;;;;;;;;25.81;40.99;99441.44;5031716;28;19947;-76
2022/08/11 01:29:58;;;;;;;;;;;;;;;25.75;41.19;99445.25;5030406;28;19916;-76
2022/08/11 01:32:42;;;;;;;;;;;;;;;25.67;41.09;99445.84;5031642;28;19916;-76
2022/08/11 01:35:26;;;;;;;;;;;;;;;25.66;41.30;99446.94;5031797;28;20420;-76
2022/08/11 01:38:11;;;;;;;;;;;;;;;25.65;41.53;99445.28;5031487;28;19967;-76
2022/08/11 01:41:07;;;;;;;;;;;;;;;25.62;42.73;99443.94;5031533;28;19932;-76
2022/08/11 01:46:55;;;;;;;;;;;;;;;25.60;41.24;99446.13;5022423;28;19920;-76
2022/08/11 01:49:49;;;;;;;;;;;;;;;25.64;41.71;99435.56;5031675;28;20378;-76
2022/08/11 01:52:38;;;;;;;;;;;;;;;25.68;41.98;99447.47;5026843;28;19918;-76
2022/08/11 01:55:15;;;;;;;;;;;;;;;25.67;41.47;99443.16;5031300;28;20380;-76
2022/08/11 01:57:49;;;;;;;;;;;;;;;25.64;40.77;99444.47;5031216;28;19962;-76
2022/08/11 02:00:16;;;;;;;;;;;;;;;25.59;41.51;99447.22;5031309;28;19913;-76
2022/08/11 02:02:48;;;;;;;;;;;;;;;25.57;41.71;99443.97;5029990;28;20002;-76
2022/08/11 02:05:35;;;;;;;;;;;;;;;25.60;40.28;99448.81;5031308;28;19909;-76
2022/08/11 02:08:19;;;;;;;;;;;;;;;25.47;43.28;99441.34;5029815;28;19909;-76
2022/08/11 02:13:44;;;;;;;;;;;;;;;25.38;41.88;99436.78;5033677;28;19967;-77
2022/08/11 02:16:10;;;;;;;;;;;;;;;25.36;41.87;99438.97;5034977;28;19909;-77
2022/08/11 02:24:47;;;;;;;;;;;;;;;25.42;41.97;99437.84;5034158;28;19952;-77
2022/08/11 02:27:22;;;;;;;;;;;;;;;25.41;42.20;99437.03;5032980;28;20461;-77
2022/08/11 02:29:50;;;;;;;;;;;;;;;25.42;41.97;99429.72;5033358;28;19909;-77
2022/08/11 02:35:02;;;;;;;;;;;;;;;25.37;42.12;99432.47;5034872;28;20353;-77
2022/08/11 02:37:42;;;;;;;;;;;;;;;25.37;41.67;99418.94;5034364;28;19948;-77
2022/08/11 02:40:19;;;;;;;;;;;;;;;25.44;41.79;99425.66;5034683;28;20436;-77
2022/08/11 02:42:44;;;;;;;;;;;;;;;25.50;42.41;99421.03;5034484;28;19940;-77
2022/08/11 02:45:16;;;;;;;;;;;;;;;25.56;42.46;99428.03;5034360;28;19909;-77
2022/08/11 02:49:52;;;;;;;;;;;;;;;25.54;42.36;99441.03;5034329;28;19967;-77
2022/08/11 02:50:34;;;;;;;;;;;;;;;25.56;41.52;99438.84;5034109;28;19909;-77
2022/08/11 02:53:08;;;;;;;;;;;;;;;25.56;42.68;99439.66;5034123;28;20385;-77
2022/08/11 02:55:51;;;;;;;;;;;;;;;25.61;42.23;99446.94;5034048;28;19909;-77
2022/08/11 02:58:19;;;;;;;;;;;;;;;25.52;42.14;99452.13;5034048;28;19913;-77
2022/08/11 03:00:49;;;;;;;;;;;;;;;25.37;42.32;99449.50;5034064;28;19913;-77
2022/08/11 03:03:24;;;;;;;;;;;;;;;25.29;42.49;99447.38;5034035;28;19909;-77
2022/08/11 03:05:55;;;;;;;;;;;;;;;25.25;42.87;99446.28;5034059;28;19927;-77
2022/08/11 03:08:39;;;;;;;;;;;;;;;25.28;43.16;99443.03;5033888;28;19916;-77
2022/08/11 03:17:00;;;;;;;;;;;;;;;25.32;42.36;99436.81;5033769;28;20321;-77
2022/08/11 03:19:41;;;;;;;;;;;;;;;25.32;41.87;99438.69;5033661;28;19920;-77
2022/08/11 03:22:16;;;;;;;;;;;;;;;25.29;42.39;99447.38;5033742;28;19916;-77
2022/08/11 03:24:48;;;;;;;;;;;;;;;25.25;43.11;99444.38;5033410;28;19916;-77
2022/08/11 03:27:22;;;;;;;;;;;;;;;25.23;42.40;99449.25;5033472;28;20374;-77
2022/08/11 03:29:51;;;;;;;;;;;;;;;25.21;42.27;99448.72;5033553;28;20009;-77
2022/08/11 03:32:28;;;;;;;;;;;;;;;25.22;43.12;99444.94;5032243;28;19909;-77
2022/08/11 03:34:55;;;;;;;;;;;;;;;25.23;42.64;99449.25;5033570;28;19909;-77
2022/08/11 03:37:49;;;;;;;;;;;;;;;25.23;42.48;99449.25;5033223;28;19912;-77
2022/08/11 03:43:06;;;;;;;;;;;;;;;25.25;43.61;99455.19;5033298;28;20009;-77
2022/08/11 03:45:31;;;;;;;;;;;;;;;25.31;42.99;99462.22;5033364;28;20381;-77
2022/08/11 03:48:15;;;;;;;;;;;;;;;25.33;42.42;99453.84;5031757;28;19966;-77
2022/08/11 03:50:53;;;;;;;;;;;;;;;25.37;42.41;99459.50;5033081;28;20326;-77
2022/08/11 03:53:36;;;;;;;;;;;;;;;25.37;41.68;99454.91;5032967;28;20377;-77
2022/08/11 03:56:21;;;;;;;;;;;;;;;25.35;43.70;99454.38;5033018;28;19959;-77
2022/08/11 03:59:05;;;;;;;;;;;;;;;25.37;43.58;99463.00;5015212;28;19909;-77
2022/08/11 04:01:48;;;;;;;;;;;;;;;25.40;44.01;99464.34;5033014;28;19919;-77
2022/08/11 04:04:23;;;;;;;;;;;;;;;25.25;43.27;99463.28;5033017;28;20377;-77
2022/08/11 04:06:58;;;;;;;;;;;;;;;25.26;43.21;99467.63;5031484;28;20369;-77
2022/08/11 04:09:45;;;;;;;;;;;;;;;25.24;44.03;99474.38;5032773;28;20002;-77
2022/08/11 04:12:29;;;;;;;;;;;;;;;25.29;43.36;99472.50;5032674;28;20316;-77
2022/08/11 04:18:19;;;;;;;;;;;;;;;25.44;43.53;99478.94;5032211;28;19923;-77
2022/08/11 04:20:59;;;;;;;;;;;;;;;25.44;43.94;99482.44;5032312;28;20344;-77
2022/08/11 04:23:30;;;;;;;;;;;;;;;25.40;43.67;99484.06;5032287;28;19909;-77
2022/08/11 04:26:14;;;;;;;;;;;;;;;25.41;43.74;99483.00;5031091;28;19916;-77
2022/08/11 04:28:54;;;;;;;;;;;;;;;25.43;43.23;99480.00;5032538;28;20366;-77
2022/08/11 04:31:45;;;;;;;;;;;;;;;25.48;43.08;99482.69;5032511;28;19915;-77
2022/08/11 04:34:20;;;;;;;;;;;;;;;25.55;43.52;99500.22;5031004;28;19908;-77
2022/08/11 04:39:57;;;;;;;;;;;;;;;25.60;42.59;99502.91;5032262;28;19920;-77
2022/08/11 04:45:33;;;;;;;;;;;;;;;25.63;42.44;99501.53;5032258;28;19916;-77
2022/08/11 05:02:35;;;;;;;;;;;;;;;25.74;41.68;99503.13;5031769;28;20022;-77
2022/08/11 05:05:31;;;;;;;;;;;;;;;25.77;41.88;99509.88;5031810;28;19987;-77
2022/08/11 05:08:15;;;;;;;;;;;;;;;25.74;41.37;99507.75;5031718;28;20015;-77
2022/08/11 05:11:00;;;;;;;;;;;;;;;25.60;42.03;99508.31;5047169;28;19944;-77
2022/08/11 05:36:04;;;;;;;;;;;;;;;25.40;41.35;99505.69;5031721;28;19990;-77
2022/08/11 05:57:48;;;;;;;;;;;;;;;25.29;41.43;99504.94;5033513;28;20508;-77
2022/08/11 06:00:23;;;;;;;;;;;;;;;25.34;41.11;99501.41;5034576;28;19963;-77
2022/08/11 06:03:00;;;;;;;;;;;;;;;25.40;40.53;99497.59;5034826;28;20400;-77
2022/08/11 06:05:38;;;;;;;;;;;;;;;25.44;40.56;99498.66;5034744;28;19920;-77
2022/08/11 06:08:05;;;;;;;;;;;;;;;25.48;40.44;99501.63;5033115;28;19909;-77
2022/08/11 06:10:32;;;;;;;;;;;;;;;25.41;40.58;99501.09;5034103;28;19910;-77
2022/08/11 06:12:59;;;;;;;;;;;;;;;25.43;40.57;99494.34;5034373;28;20376;-77
2022/08/11 06:15:25;;;;;;;;;;;;;;;25.50;40.37;99497.53;5033431;28;19988;-77
2022/08/11 06:17:52;;;;;;;;;;;;;;;25.59;40.31;99500.47;5034571;28;19917;-77
2022/08/11 06:20:19;;;;;;;;;;;;;;;25.60;40.29;99500.19;5034654;28;19916;-77
2022/08/11 06:22:46;;;;;;;;;;;;;;;25.67;40.07;99499.94;5034769;28;19909;-77
2022/08/11 06:25:12;;;;;;;;;;;;;;;25.71;39.80;99505.59;5034551;28;19949;-77
2022/08/11 06:27:39;;;;;;;;;;;;;;;25.81;39.50;99503.63;5034254;28;19931;-77
2022/08/11 06:30:12;;;;;;;;;;;;;;;25.88;39.90;99500.63;5034167;28;19912;-77
2022/08/11 06:32:38;;;;;;;;;;;;;;;26.02;39.36;99498.13;5033249;28;19959;-77
2022/08/11 06:35:18;;;;;;;;;;;;;;;26.15;39.20;99492.09;5034353;28;19909;-77
2022/08/11 06:37:47;;;;;;;;;;;;;;;26.29;39.04;99501.19;5034215;28;19913;-77
2022/08/11 06:40:29;;;;;;;;;;;;;;;26.39;38.91;99503.84;5034498;28;19909;-77
2022/08/11 06:43:01;;;;;;;;;;;;;;;26.55;38.59;99489.09;5034396;28;20436;-77
2022/08/11 06:45:26;;;;;;;;;;;;;;;26.65;38.63;99495.50;5034293;28;20040;-77
2022/08/11 06:47:52;;;;;;;;;;;;;;;26.78;38.57;99500.28;5034131;28;19955;-77
2022/08/11 06:53:06;;;;;;;;;;;;;;;27.05;38.02;99497.88;5034270;28;19916;-77
2022/08/11 07:01:06;;;;;;;;;;;;;;;27.25;37.53;99496.84;5034154;28;20329;-76
2022/08/11 07:03:35;;;;;;;;;;;;;;;27.30;37.35;99493.25;5032805;28;19992;-77
2022/08/11 07:06:09;;;;;;;;;;;;;;;27.37;37.41;99491.81;5032848;28;19917;-77
2022/08/11 07:17:10;;;;;;;;;;;;;;;27.67;36.85;99498.00;5032617;28;19975;-77
2022/08/11 07:30:43;;;;;;;;;;;;;;;27.90;35.96;99489.00;5032369;28;19916;-78
2022/08/11 07:33:11;;;;;;;;;;;;;;;27.90;36.07;99499.84;5032529;28;20399;-77
2022/08/11 07:35:48;;;;;;;;;;;;;;;27.85;36.07;99494.50;5033083;28;19909;-77
2022/08/11 07:38:20;;;;;;;;;;;;;;;27.85;36.04;99499.94;5031882;28;19932;-77
2022/08/11 07:40:46;;;;;;;;;;;;;;;27.85;36.41;99498.03;5032633;28;19913;-77
2022/08/11 07:43:12;;;;;;;;;;;;;;;27.88;35.99;99493.91;5030560;28;19988;-77
2022/08/11 07:53:53;;;;;;;;;;;;;;;27.60;36.44;99500.25;5032468;28;19959;-77
2022/08/11 07:56:18;;;;;;;;;;;;;;;27.67;36.72;99503.44;5032768;28;19913;-77
2022/08/11 08:18:01;;;;;;;;;;;;;;;28.40;35.03;99479.31;5031916;28;19967;-76
2022/08/11 08:20:27;;;;;;;;;;;;;;;28.48;35.01;99486.78;5032232;28;19915;-76
2022/08/11 08:22:57;;;;;;;;;;;;;;;28.57;34.85;99477.94;5032366;28;19909;-76
2022/08/11 08:25:27;;;;;;;;;;;;;;;28.66;34.54;99479.69;5030954;28;19940;-76
2022/08/11 08:27:53;;;;;;;;;;;;;;;28.75;34.15;99475.16;5032153;28;20368;-76
2022/08/11 08:33:03;;;;;;;;;;;;;;;28.97;34.42;99471.81;5032485;28;20424;-76
2022/08/11 08:35:29;;;;;;;;;;;;;;;29.06;34.53;99474.66;5032148;28;19931;-76
2022/08/11 08:37:55;;;;;;;;;;;;;;;29.16;33.90;99469.03;5030619;28;20378;-76
2022/08/11 08:40:20;;;;;;;;;;;;;;;29.30;34.27;99467.09;5032016;28;20004;-76
2022/08/11 08:42:50;;;;;;;;;;;;;;;29.26;33.54;99459.84;5030675;28;20003;-76
2022/08/11 08:45:17;;;;;;;;;;;;;;;29.36;33.88;99459.63;5031856;28;19911;-76
2022/08/11 08:47:46;;;;;;;;;;;;;;;29.36;33.20;99459.63;5031949;28;19909;-76
2022/08/11 08:50:13;;;;;;;;;;;;;;;29.46;33.78;99466.81;5031923;28;20298;-76
2022/08/11 08:52:44;;;;;;;;;;;;;;;29.62;33.36;99462.66;5032031;28;20242;-76
2022/08/11 08:55:14;;;;;;;;;;;;;;;29.80;33.39;99459.00;5031388;28;19988;-76
2022/08/11 08:57:41;;;;;;;;;;;;;;;29.94;32.52;99454.31;5030337;28;20447;-76
2022/08/11 09:00:07;;;;;;;;;;;;;;;30.00;32.45;99450.34;5031717;28;20279;-76
2022/08/11 09:02:33;;;;;;;;;;;;;;;30.03;32.02;99449.78;5031504;28;19916;-76
2022/08/11 09:04:59;;;;;;;;;;;;;;;30.04;31.92;99447.84;5031449;28;19916;-76
2022/08/11 09:07:27;;;;;;;;;;;;;;;30.10;31.76;99443.91;5029412;28;19970;-76
2022/08/11 09:09:55;;;;;;;;;;;;;;;30.21;32.01;99434.34;5021030;28;19913;-76
2022/08/11 09:12:25;;;;;;;;;;;;;;;30.42;31.75;99439.28;5027840;28;19924;-76
2022/08/11 09:15:02;;;;;;;;;;;;;;;30.66;30.48;99437.88;5021881;28;19932;-76
2022/08/11 09:17:29;;;;;;;;;;;;;;;30.70;30.42;99429.06;5026810;28;19916;-77
2022/08/11 09:19:59;;;;;;;;;;;;;;;30.92;30.46;99438.00;5026838;28;19913;-77
2022/08/11 09:27:57;;;;;;;;;;;;;;;31.46;29.97;99435.13;5022167;28;20435;-77
2022/08/11 09:30:26;;;;;;;;;;;;;;;31.67;29.98;99424.41;5036188;28;20441;-77
2022/08/11 09:32:57;;;;;;;;;;;;;;;31.78;29.66;99425.72;5036215;28;19913;-77
2022/08/11 09:35:29;;;;;;;;;;;;;;;32.01;29.66;99429.91;5033008;28;19919;-77
2022/08/11 09:40:43;;;;;;;;;;;;;;;32.47;28.98;99429.22;5035143;28;19920;-77
2022/08/11 09:45:54;;;;;;;;;;;;;;;32.87;28.21;99409.81;5032138;28;19967;-77
2022/08/11 09:48:21;;;;;;;;;;;;;;;32.97;27.71;99419.59;5033959;28;19920;-77
2022/08/11 09:50:48;;;;;;;;;;;;;;;33.03;27.71;99405.38;5035970;28;19956;-77
2022/08/11 09:53:15;;;;;;;;;;;;;;;33.16;28.01;99407.09;5037252;28;19909;-76
2022/08/11 09:55:40;;;;;;;;;;;;;;;33.31;26.99;99404.94;5069543;28;19995;-77
2022/08/11 09:58:17;;;;;;;;;;;;;;;33.40;27.16;99402.94;5035796;28;20016;-77
2022/08/11 10:00:46;;;;;;;;;;;;;;;33.45;26.28;99389.06;5037736;28;20000;-77
2022/08/11 10:03:11;;;;;;;;;;;;;;;33.58;27.19;99392.69;5037818;28;19909;-77
2022/08/11 10:08:25;;;;;;;;;;;;;;;34.08;26.73;99398.84;5038067;28;19932;-77
2022/08/11 10:10:51;;;;;;;;;;;;;;;34.02;26.78;99394.72;5037740;28;20392;-77
2022/08/11 10:13:20;;;;;;;;;;;;;;;34.14;26.20;99399.44;5036420;28;20035;-77
2022/08/11 10:15:46;;;;;;;;;;;;;;;34.22;25.37;99395.84;5037858;28;19909;-77
2022/08/11 10:21:04;;;;;;;;;;;;;;;34.42;24.72;99388.72;5035192;28;19920;-77
2022/08/11 10:29:01;;;;;;;;;;;;;;;34.90;24.25;99382.47;5035930;28;20447;-77
2022/08/11 10:34:10;;;;;;;;;;;;;;;35.23;25.37;99379.63;5031634;28;19967;-77
2022/08/11 10:36:47;;;;;;;;;;;;;;;35.46;25.06;99376.38;5033125;28;19909;-77
2022/08/11 10:39:15;;;;;;;;;;;;;;;35.47;24.56;99377.97;5033985;28;20378;-77
2022/08/11 10:44:26;;;;;;;;;;;;;;;35.74;23.05;99373.69;5032877;28;19916;-77
2022/08/11 10:49:35;;;;;;;;;;;;;;;35.88;24.84;99371.38;5034081;28;19932;-77
2022/08/11 11:00:15;;;;;;;;;;;;;;;36.36;23.53;99361.25;5032545;28;19915;-77
2022/08/11 11:02:41;;;;;;;;;;;;;;;36.61;22.71;99362.72;5032017;28;19909;-77
2022/08/11 11:05:08;;;;;;;;;;;;;;;36.82;22.82;99357.75;5033782;28;20378;-77
2022/08/11 11:08:02;;;;;;;;;;;;;;;36.92;23.02;99354.44;5033499;28;19909;-77
2022/08/11 11:10:27;;;;;;;;;;;;;;;36.73;21.36;99348.06;5032828;28;19962;-77
2022/08/11 11:18:27;;;;;;;;;;;;;;;36.93;22.58;99338.72;5032617;28;19970;-77
2022/08/11 11:21:04;;;;;;;;;;;;;;;37.10;22.16;99343.03;5032571;28;19909;-77
2022/08/11 11:23:56;;;;;;;;;;;;;;;37.24;22.44;99337.88;5032348;28;19909;-77
2022/08/11 11:26:29;;;;;;;;;;;;;;;37.42;22.12;99330.00;5025251;28;19919;-78
2022/08/11 11:29:06;;;;;;;;;;;;;;;36.99;23.16;99342.78;5033404;28;19951;-78
2022/08/11 11:31:44;;;;;;;;;;;;;;;36.38;23.78;99335.00;5032143;28;19912;-78
2022/08/11 11:34:33;;;;;;;;;;;;;;;35.80;23.63;99340.13;5032770;28;19916;-78
2022/08/11 11:36:59;;;;;;;;;;;;;;;35.43;23.61;99338.63;5029120;28;19966;-77
2022/08/11 11:39:29;;;;;;;;;;;;;;;35.03;23.43;99333.91;5032084;28;19920;-77
2022/08/11 11:41:58;;;;;;;;;;;;;;;35.13;23.55;99325.19;5033151;28;19916;-77
2022/08/11 11:44:24;;;;;;;;;;;;;;;35.77;23.75;99329.84;5032706;28;19959;-77
2022/08/11 11:46:51;;;;;;;;;;;;;;;36.09;22.58;99322.47;5032216;28;20376;-77
2022/08/11 11:49:17;;;;;;;;;;;;;;;36.32;23.68;99327.38;5030330;28;19908;-77
2022/08/11 11:51:43;;;;;;;;;;;;;;;36.55;22.43;99323.66;5031455;28;19924;-77
2022/08/11 11:54:09;;;;;;;;;;;;;;;36.87;23.18;99320.91;5030356;28;19916;-77
2022/08/11 11:56:35;;;;;;;;;;;;;;;37.19;21.31;99308.66;5032759;28;19909;-77
2022/08/11 12:01:44;;;;;;;;;;;;;;;36.79;22.10;99299.88;5032796;28;19916;-77
2022/08/11 12:04:10;;;;;;;;;;;;;;;36.42;23.60;99302.13;5032630;28;19909;-77
2022/08/11 12:06:36;;;;;;;;;;;;;;;35.90;23.47;99309.41;5032746;28;19915;-77
2022/08/11 12:09:03;;;;;;;;;;;;;;;35.58;23.11;99300.25;5032495;28;19958;-77
2022/08/11 12:14:15;;;;;;;;;;;;;;;35.35;23.14;99296.47;5032897;28;19916;-77
2022/08/11 12:16:42;;;;;;;;;;;;;;;35.84;23.77;99286.09;5032340;28;19924;-77
2022/08/11 12:19:10;;;;;;;;;;;;;;;36.46;23.22;99292.00;5032182;28;19967;-77
2022/08/11 12:21:36;;;;;;;;;;;;;;;36.79;21.28;99294.38;5032425;28;20345;-77
2022/08/11 12:29:18;;;;;;;;;;;;;;;37.08;21.27;99282.03;5032315;28;20445;-77
2022/08/11 12:31:44;;;;;;;;;;;;;;;37.18;22.03;99274.03;5032277;28;19931;-77
2022/08/11 12:34:10;;;;;;;;;;;;;;;37.44;22.23;99276.13;5031979;28;19935;-77
2022/08/11 12:36:36;;;;;;;;;;;;;;;37.36;21.04;99279.91;5032075;28;20344;-77
2022/08/11 12:39:04;;;;;;;;;;;;;;;36.62;22.57;99268.03;5032089;28;20412;-77
2022/08/11 12:47:00;;;;;;;;;;;;;;;35.88;22.97;99267.75;5032224;28;20396;-77
2022/08/11 12:52:17;;;;;;;;;;;;;;;36.46;22.24;99257.06;5032082;28;20003;-77
2022/08/11 12:54:50;;;;;;;;;;;;;;;36.56;22.08;99264.75;5030985;28;19944;-77
2022/08/11 13:05:51;;;;;;;;;;;;;;;37.36;20.67;99251.56;5031947;28;19916;-77
2022/08/11 13:08:18;;;;;;;;;;;;;;;37.24;21.02;99257.25;5031253;28;19916;-77
2022/08/11 13:13:30;;;;;;;;;;;;;;;37.53;20.74;99251.91;5031823;28;20401;-77
2022/08/11 13:15:56;;;;;;;;;;;;;;;37.73;20.72;99266.47;5031405;28;19913;-77
2022/08/11 13:18:22;;;;;;;;;;;;;;;37.57;21.19;99259.44;5029787;28;20023;-77
2022/08/11 13:20:54;;;;;;;;;;;;;;;37.14;20.68;99256.59;5031355;28;19996;-77
2022/08/11 13:23:21;;;;;;;;;;;;;;;36.65;21.77;99252.75;5031416;28;20432;-77
2022/08/11 13:25:47;;;;;;;;;;;;;;;36.73;21.64;99254.50;5031199;28;19909;-77
2022/08/11 13:28:13;;;;;;;;;;;;;;;37.07;21.12;99250.94;5031422;28;19909;-77
2022/08/11 13:33:24;;;;;;;;;;;;;;;37.44;21.37;99243.09;5030501;28;20131;-77
2022/08/11 13:35:51;;;;;;;;;;;;;;;37.59;20.64;99244.16;5030932;28;20409;-77
2022/08/11 13:38:18;;;;;;;;;;;;;;;37.74;20.99;99243.28;5031083;28;19921;-77
2022/08/11 13:40:44;;;;;;;;;;;;;;;37.96;20.70;99246.44;5030463;28;19909;-77
2022/08/11 13:43:12;;;;;;;;;;;;;;;37.92;20.78;99243.63;5031250;28;19915;-77
2022/08/11 13:45:37;;;;;;;;;;;;;;;37.79;19.83;99236.66;5031379;28;19975;-77
2022/08/11 13:48:07;;;;;;;;;;;;;;;37.58;20.56;99234.28;5031098;28;20390;-77
2022/08/11 13:53:19;;;;;;;;;;;;;;;36.72;21.42;99241.91;5031391;28;20309;-77
2022/08/11 13:55:45;;;;;;;;;;;;;;;36.31;21.38;99233.09;5029822;28;19932;-77
2022/08/11 13:58:11;;;;;;;;;;;;;;;36.42;22.01;99239.69;5031106;28;20370;-77
2022/08/11 14:00:37;;;;;;;;;;;;;;;36.26;22.04;99236.88;5031090;28;20313;-77
2022/08/11 14:03:04;;;;;;;;;;;;;;;36.39;21.96;99240.34;5030314;28;20370;-77
2022/08/11 14:05:35;;;;;;;;;;;;;;;36.56;21.51;99230.94;5030963;28;19909;-77
2022/08/11 14:08:02;;;;;;;;;;;;;;;36.74;21.50;99231.34;5028907;28;19916;-77
2022/08/11 14:10:28;;;;;;;;;;;;;;;36.79;21.34;99226.38;5034034;28;19915;-77
2022/08/11 14:15:44;;;;;;;;;;;;;;;35.87;22.10;99230.44;5035161;28;19963;-77
2022/08/11 14:18:24;;;;;;;;;;;;;;;35.53;22.58;99234.59;5034748;28;19921;-77
2022/08/11 14:23:39;;;;;;;;;;;;;;;35.22;23.22;99238.03;5033766;28;19912;-77
2022/08/11 14:26:25;;;;;;;;;;;;;;;35.09;23.35;99236.47;5035114;28;19909;-77
2022/08/11 14:29:01;;;;;;;;;;;;;;;34.92;23.26;99242.22;5034439;28;19909;-77
2022/08/11 14:31:29;;;;;;;;;;;;;;;35.06;23.10;99242.66;5034234;28;19948;-77
2022/08/11 14:33:56;;;;;;;;;;;;;;;34.94;23.68;99242.72;5033292;28;20402;-77
2022/08/11 14:36:23;;;;;;;;;;;;;;;35.03;23.48;99232.38;5033136;28;20381;-77
2022/08/11 14:38:49;;;;;;;;;;;;;;;35.18;23.20;99228.91;5033858;28;20381;-77
2022/08/11 14:49:28;;;;;;;;;;;;;;;35.20;23.59;99234.03;5034279;28;20007;-77
2022/08/11 14:51:54;;;;;;;;;;;;;;;35.15;23.12;99237.84;5034152;28;19908;-77
2022/08/11 14:57:14;;;;;;;;;;;;;;;34.91;23.85;99235.94;5034150;28;20008;-77
2022/08/11 14:59:41;;;;;;;;;;;;;;;34.73;23.56;99235.38;5032752;28;19908;-77
2022/08/11 15:04:50;;;;;;;;;;;;;;;34.33;24.25;99240.81;5033920;28;19931;-77
2022/08/11 15:07:16;;;;;;;;;;;;;;;34.23;24.57;99233.00;5033891;28;20492;-77
2022/08/11 15:09:43;;;;;;;;;;;;;;;34.11;24.32;99239.25;5032634;28;19996;-77
2022/08/11 15:12:17;;;;;;;;;;;;;;;34.01;23.98;99236.97;5032690;28;19909;-77
2022/08/11 15:17:34;;;;;;;;;;;;;;;33.81;24.59;99243.28;5033477;28;19975;-77
2022/08/11 15:25:33;;;;;;;;;;;;;;;33.69;25.15;99235.84;5033697;28;19916;-77
2022/08/11 15:39:01;;;;;;;;;;;;;;;33.17;25.61;99235.50;5033256;28;20313;-77
2022/08/11 15:45:47;;;;;;;;;;;;;;;33.22;25.63;99234.50;5033419;28;19920;-77
2022/08/11 15:47:25;;;;;;;;;;;;;;;33.18;25.64;99231.63;5032935;28;20287;-77
2022/08/11 15:49:52;;;;;;;;;;;;;;;33.14;25.90;99231.50;5032957;28;19913;-77
2022/08/11 15:52:20;;;;;;;;;;;;;;;33.13;25.58;99240.84;5033026;28;19976;-77
2022/08/11 15:54:46;;;;;;;;;;;;;;;33.00;25.70;99233.72;5031656;28;19915;-77
2022/08/11 16:04:10;;;;;;;;;;;;;;;32.88;25.92;99241.88;5032871;28;19967;-77
2022/08/11 16:05:21;;;;;;;;;;;;;;;32.72;26.15;99243.56;5033222;28;19913;-77
2022/08/11 16:07:48;;;;;;;;;;;;;;;32.55;25.94;99244.44;5032807;28;19909;-77
2022/08/11 16:10:20;;;;;;;;;;;;;;;32.45;26.28;99240.16;5031509;28;19960;-77
2022/08/11 16:18:17;;;;;;;;;;;;;;;32.30;26.25;99242.66;5032185;28;19924;-77
2022/08/11 16:20:43;;;;;;;;;;;;;;;32.29;26.49;99238.31;5047720;28;19912;-77
2022/08/11 16:23:09;;;;;;;;;;;;;;;32.26;26.43;99238.97;5032533;28;19971;-77
2022/08/11 16:25:35;;;;;;;;;;;;;;;32.17;26.62;99247.19;5031309;28;19913;-77
2022/08/11 16:28:05;;;;;;;;;;;;;;;32.18;26.68;99248.78;5032645;28;19916;-77
2022/08/11 16:30:31;;;;;;;;;;;;;;;32.15;26.54;99249.44;5030781;28;19909;-77
2022/08/11 16:32:57;;;;;;;;;;;;;;;32.09;26.75;99258.94;5032092;28;20444;-77
2022/08/11 16:40:53;;;;;;;;;;;;;;;32.05;26.76;99268.91;5032376;28;19915;-77
2022/08/11 16:48:52;;;;;;;;;;;;;;;31.84;26.99;99277.78;5032573;28;20309;-77
2022/08/11 16:51:19;;;;;;;;;;;;;;;31.76;27.07;99286.00;5030799;28;19909;-77
2022/08/11 16:53:45;;;;;;;;;;;;;;;31.71;27.12;99283.44;5032121;28;19909;-77
2022/08/11 16:56:15;;;;;;;;;;;;;;;31.67;27.40;99287.91;5030744;28;19976;-77
2022/08/11 17:01:26;;;;;;;;;;;;;;;31.63;27.55;99293.22;5032154;28;20039;-77
2022/08/11 17:14:59;;;;;;;;;;;;;;;31.42;27.95;99314.09;5031647;28;19978;-77
2022/08/11 17:17:32;;;;;;;;;;;;;;;31.41;27.53;99316.03;5031526;28;20472;-77
2022/08/11 17:20:00;;;;;;;;;;;;;;;31.37;28.08;99311.53;5031677;28;20397;-77
2022/08/11 17:25:11;;;;;;;;;;;;;;;31.33;28.23;99322.28;5031947;28;20454;-77
2022/08/11 17:27:37;;;;;;;;;;;;;;;31.28;28.13;99319.72;5031570;28;19948;-76
2022/08/11 17:30:05;;;;;;;;;;;;;;;31.26;27.95;99321.97;5031866;28;19945;-76
2022/08/11 17:35:32;;;;;;;;;;;;;;;31.16;28.38;99323.06;5031768;28;19963;-76
2022/08/11 17:37:58;;;;;;;;;;;;;;;31.13;28.21;99328.31;5030280;28;19916;-76
2022/08/11 17:40:24;;;;;;;;;;;;;;;31.04;28.52;99331.03;5030368;28;19916;-76
2022/08/11 17:48:25;;;;;;;;;;;;;;;30.93;28.73;99335.19;5035634;28;19924;-76
2022/08/11 17:50:51;;;;;;;;;;;;;;;30.88;28.54;99338.88;5035386;28;19908;-76
2022/08/11 18:01:34;;;;;;;;;;;;;;;30.57;28.81;99360.69;5035491;28;20297;-76
2022/08/11 18:04:03;;;;;;;;;;;;;;;30.49;29.17;99356.03;5035186;28;19995;-76
2022/08/11 18:06:30;;;;;;;;;;;;;;;30.45;29.26;99356.94;5035105;28;19962;-76
